Terminal Aerodrome Forecast
Issued by NWS Sioux Falls, SD

Home | Current Version | Previous Version | Text Only | Print | Product List | Glossary Off
Versions: 1 2 3 4 5 6 7 8 9 10 11 12 13 14 15 16

839
FTUS43 KFSD 232320
TAFHON
TAF
KHON 232320Z 2400/2424 15006KT P6SM SCT080
     FM240500 12005KT P6SM BKN060
     FM240900 04006KT P6SM -SHRA SCT030 OVC050
     FM241500 03014G22KT 6SM -SHRA OVC030
     FM242100 01012KT P6SM OVC035=

USA.gov is the U.S. government's official web portal to all federal, state and local government web resources and services.